sensor_id;sensor_type;location;lat;lon;timestamp;P1;durP1;ratioP1;P2;durP2;ratioP2
29546;SDS011;40782;47.264;11.330;2024-01-30T10:21:20;9.55;;;4.15;;
29546;SDS011;40782;47.264;11.330;2024-01-30T10:23:48;5.93;;;3.83;;
29546;SDS011;40782;47.264;11.330;2024-01-30T10:26:16;5.78;;;3.55;;
29546;SDS011;40782;47.264;11.330;2024-01-30T10:28:43;8.25;;;3.65;;
29546;SDS011;40782;47.264;11.330;2024-01-30T10:31:15;7.70;;;3.70;;
29546;SDS011;40782;47.264;11.330;2024-01-30T10:33:43;4.50;;;3.78;;
29546;SDS011;40782;47.264;11.330;2024-01-30T10:36:13;4.68;;;3.35;;
29546;SDS011;40782;47.264;11.330;2024-01-30T10:38:42;6.45;;;3.17;;
29546;SDS011;40782;47.264;11.330;2024-01-30T10:41:11;7.40;;;3.83;;
29546;SDS011;40782;47.264;11.330;2024-01-30T10:43:41;7.30;;;3.58;;
29546;SDS011;40782;47.264;11.330;2024-01-30T10:46:15;6.15;;;4.18;;
29546;SDS011;40782;47.264;11.330;2024-01-30T10:48:46;6.40;;;3.83;;
29546;SDS011;40782;47.264;11.330;2024-01-30T10:51:18;5.43;;;3.95;;
29546;SDS011;40782;47.264;11.330;2024-01-30T10:53:48;8.32;;;4.35;;
29546;SDS011;40782;47.264;11.330;2024-01-30T10:56:16;8.32;;;4.35;;
29546;SDS011;40782;47.264;11.330;2024-01-30T10:58:46;6.70;;;3.92;;
29546;SDS011;40782;47.264;11.330;2024-01-30T11:01:14;5.57;;;3.85;;
29546;SDS011;40782;47.264;11.330;2024-01-30T11:03:42;5.60;;;4.10;;
29546;SDS011;40782;47.264;11.330;2024-01-30T11:06:10;5.35;;;3.97;;
29546;SDS011;40782;47.264;11.330;2024-01-30T11:08:39;7.38;;;4.43;;
29546;SDS011;40782;47.264;11.330;2024-01-30T11:11:09;32.80;;;19.15;;
29546;SDS011;40782;47.264;11.330;2024-01-30T11:13:36;15.20;;;9.63;;
29546;SDS011;40782;47.264;11.330;2024-01-30T11:16:04;9.02;;;5.05;;
29546;SDS011;40782;47.264;11.330;2024-01-30T11:18:32;6.57;;;4.05;;
29546;SDS011;40782;47.264;11.330;2024-01-30T11:21:04;5.57;;;3.22;;
29546;SDS011;40782;47.264;11.330;2024-01-30T11:23:33;7.78;;;3.63;;
29546;SDS011;40782;47.264;11.330;2024-01-30T11:26:01;8.77;;;5.63;;
29546;SDS011;40782;47.264;11.330;2024-01-30T11:28:34;8.23;;;5.47;;
29546;SDS011;40782;47.264;11.330;2024-01-30T11:31:06;6.45;;;3.08;;
29546;SDS011;40782;47.264;11.330;2024-01-30T11:33:45;8.68;;;3.10;;
29546;SDS011;40782;47.264;11.330;2024-01-30T11:36:12;5.75;;;3.13;;
29546;SDS011;40782;47.264;11.330;2024-01-30T11:38:40;6.47;;;3.20;;
29546;SDS011;40782;47.264;11.330;2024-01-30T11:41:10;6.40;;;2.97;;
29546;SDS011;40782;47.264;11.330;2024-01-30T11:43:39;6.18;;;3.25;;
29546;SDS011;40782;47.264;11.330;2024-01-30T11:46:06;4.57;;;2.88;;
29546;SDS011;40782;47.264;11.330;2024-01-30T11:48:35;4.03;;;2.80;;
29546;SDS011;40782;47.264;11.330;2024-01-30T11:51:02;4.00;;;2.90;;
29546;SDS011;40782;47.264;11.330;2024-01-30T11:53:29;5.78;;;3.00;;
29546;SDS011;40782;47.264;11.330;2024-01-30T11:55:56;5.65;;;2.97;;
29546;SDS011;40782;47.264;11.330;2024-01-30T11:58:24;4.30;;;2.85;;
29546;SDS011;40782;47.264;11.330;2024-01-30T12:00:56;4.45;;;2.75;;
29546;SDS011;40782;47.264;11.330;2024-01-30T12:05:54;25.45;;;15.82;;
29546;SDS011;40782;47.264;11.330;2024-01-30T12:08:22;9.45;;;5.70;;
29546;SDS011;40782;47.264;11.330;2024-01-30T12:10:55;13.15;;;4.22;;
29546;SDS011;40782;47.264;11.330;2024-01-30T12:13:23;16.25;;;5.80;;
29546;SDS011;40782;47.264;11.330;2024-01-30T12:15:51;6.93;;;2.80;;
29546;SDS011;40782;47.264;11.330;2024-01-30T12:18:19;2.58;;;1.83;;
29546;SDS011;40782;47.264;11.330;2024-01-30T12:20:56;3.25;;;1.98;;
29546;SDS011;40782;47.264;11.330;2024-01-30T12:23:24;3.78;;;1.95;;
29546;SDS011;40782;47.264;11.330;2024-01-30T12:25:52;2.42;;;2.00;;
29546;SDS011;40782;47.264;11.330;2024-01-30T12:28:20;2.20;;;2.00;;
29546;SDS011;40782;47.264;11.330;2024-01-30T12:30:47;2.92;;;1.90;;
29546;SDS011;40782;47.264;11.330;2024-01-30T12:33:16;2.13;;;1.80;;
29546;SDS011;40782;47.264;11.330;2024-01-30T12:35:48;2.65;;;1.48;;
29546;SDS011;40782;47.264;11.330;2024-01-30T12:38:16;3.70;;;2.15;;
29546;SDS011;40782;47.264;11.330;2024-01-30T12:40:43;3.95;;;2.10;;
29546;SDS011;40782;47.264;11.330;2024-01-30T12:43:10;2.05;;;1.90;;
29546;SDS011;40782;47.264;11.330;2024-01-30T12:45:38;2.25;;;1.90;;
29546;SDS011;40782;47.264;11.330;2024-01-30T12:48:05;2.40;;;1.85;;
29546;SDS011;40782;47.264;11.330;2024-01-30T12:50:33;2.58;;;2.28;;
29546;SDS011;40782;47.264;11.330;2024-01-30T12:53:01;2.58;;;2.38;;
29546;SDS011;40782;47.264;11.330;2024-01-30T12:55:28;2.67;;;2.33;;
29546;SDS011;40782;47.264;11.330;2024-01-30T12:57:55;3.53;;;2.30;;
29546;SDS011;40782;47.264;11.330;2024-01-30T13:00:22;2.35;;;2.08;;
29546;SDS011;40782;47.264;11.330;2024-01-30T13:02:49;6.50;;;2.45;;
29546;SDS011;40782;47.264;11.330;2024-01-30T13:05:17;2.38;;;2.17;;
29546;SDS011;40782;47.264;11.330;2024-01-30T13:07:44;4.22;;;2.17;;
29546;SDS011;40782;47.264;11.330;2024-01-30T13:10:13;4.85;;;1.80;;
29546;SDS011;40782;47.264;11.330;2024-01-30T13:12:40;4.22;;;2.20;;
29546;SDS011;40782;47.264;11.330;2024-01-30T13:15:07;5.45;;;2.03;;
29546;SDS011;40782;47.264;11.330;2024-01-30T13:17:36;2.40;;;1.80;;
29546;SDS011;40782;47.264;11.330;2024-01-30T13:20:03;3.65;;;2.00;;
29546;SDS011;40782;47.264;11.330;2024-01-30T13:22:33;4.47;;;1.98;;
29546;SDS011;40782;47.264;11.330;2024-01-30T13:25:00;2.72;;;1.75;;
29546;SDS011;40782;47.264;11.330;2024-01-30T13:27:29;4.00;;;1.40;;
29546;SDS011;40782;47.264;11.330;2024-01-30T13:29:56;6.13;;;2.17;;
29546;SDS011;40782;47.264;11.330;2024-01-30T13:32:23;4.88;;;1.98;;
29546;SDS011;40782;47.264;11.330;2024-01-30T13:34:51;1.50;;;1.40;;
29546;SDS011;40782;47.264;11.330;2024-01-30T13:37:18;2.28;;;1.70;;
29546;SDS011;40782;47.264;11.330;2024-01-30T13:39:45;4.70;;;1.65;;
29546;SDS011;40782;47.264;11.330;2024-01-30T13:42:13;2.30;;;1.67;;
29546;SDS011;40782;47.264;11.330;2024-01-30T13:44:41;3.17;;;1.52;;
29546;SDS011;40782;47.264;11.330;2024-01-30T13:47:09;2.33;;;1.50;;
29546;SDS011;40782;47.264;11.330;2024-01-30T13:49:36;2.33;;;1.40;;
29546;SDS011;40782;47.264;11.330;2024-01-30T13:52:04;1.67;;;1.40;;
29546;SDS011;40782;47.264;11.330;2024-01-30T13:54:31;1.90;;;1.63;;
29546;SDS011;40782;47.264;11.330;2024-01-30T13:56:58;2.47;;;1.27;;
29546;SDS011;40782;47.264;11.330;2024-01-30T13:59:25;1.73;;;1.23;;
29546;SDS011;40782;47.264;11.330;2024-01-30T14:01:54;3.88;;;1.30;;
29546;SDS011;40782;47.264;11.330;2024-01-30T14:04:21;1.85;;;1.58;;
29546;SDS011;40782;47.264;11.330;2024-01-30T14:06:48;1.45;;;1.27;;
29546;SDS011;40782;47.264;11.330;2024-01-30T14:09:15;1.38;;;1.30;;
29546;SDS011;40782;47.264;11.330;2024-01-30T14:11:44;2.28;;;1.40;;
29546;SDS011;40782;47.264;11.330;2024-01-30T14:14:11;2.17;;;1.45;;
29546;SDS011;40782;47.264;11.330;2024-01-30T14:16:38;2.53;;;1.50;;
29546;SDS011;40782;47.264;11.330;2024-01-30T14:19:07;4.85;;;1.80;;
29546;SDS011;40782;47.264;11.330;2024-01-30T14:21:34;4.30;;;2.00;;
29546;SDS011;40782;47.264;11.330;2024-01-30T14:24:02;3.30;;;2.05;;
29546;SDS011;40782;47.264;11.330;2024-01-30T14:26:30;2.13;;;1.92;;
29546;SDS011;40782;47.264;11.330;2024-01-30T14:28:57;3.13;;;1.92;;
29546;SDS011;40782;47.264;11.330;2024-01-30T14:31:24;5.03;;;2.50;;
29546;SDS011;40782;47.264;11.330;2024-01-30T14:33:51;6.22;;;2.17;;
29546;SDS011;40782;47.264;11.330;2024-01-30T14:36:21;2.95;;;2.03;;
29546;SDS011;40782;47.264;11.330;2024-01-30T14:38:53;3.10;;;2.22;;
29546;SDS011;40782;47.264;11.330;2024-01-30T14:41:20;2.75;;;1.63;;
29546;SDS011;40782;47.264;11.330;2024-01-30T14:43:47;2.97;;;1.98;;
29546;SDS011;40782;47.264;11.330;2024-01-30T14:46:15;2.90;;;1.70;;
29546;SDS011;40782;47.264;11.330;2024-01-30T14:48:42;5.38;;;2.95;;
29546;SDS011;40782;47.264;11.330;2024-01-30T14:51:09;7.25;;;2.22;;
29546;SDS011;40782;47.264;11.330;2024-01-30T14:53:38;4.47;;;2.20;;
29546;SDS011;40782;47.264;11.330;2024-01-30T14:56:05;4.95;;;2.30;;
29546;SDS011;40782;47.264;11.330;2024-01-30T14:58:32;5.65;;;2.20;;
29546;SDS011;40782;47.264;11.330;2024-01-30T15:01:00;3.00;;;1.90;;
29546;SDS011;40782;47.264;11.330;2024-01-30T15:03:27;4.75;;;2.58;;
29546;SDS011;40782;47.264;11.330;2024-01-30T15:05:55;3.80;;;1.65;;
29546;SDS011;40782;47.264;11.330;2024-01-30T15:08:22;4.38;;;2.05;;
29546;SDS011;40782;47.264;11.330;2024-01-30T15:10:51;3.28;;;1.65;;
29546;SDS011;40782;47.264;11.330;2024-01-30T15:13:18;6.60;;;2.03;;
29546;SDS011;40782;47.264;11.330;2024-01-30T15:15:46;7.47;;;4.57;;
29546;SDS011;40782;47.264;11.330;2024-01-30T15:18:13;4.45;;;2.40;;
29546;SDS011;40782;47.264;11.330;2024-01-30T15:20:40;3.33;;;2.72;;
29546;SDS011;40782;47.264;11.330;2024-01-30T15:23:07;5.65;;;1.95;;
29546;SDS011;40782;47.264;11.330;2024-01-30T15:25:34;3.40;;;1.80;;
29546;SDS011;40782;47.264;11.330;2024-01-30T15:28:03;1.80;;;1.40;;
29546;SDS011;40782;47.264;11.330;2024-01-30T15:30:30;4.07;;;1.45;;
29546;SDS011;40782;47.264;11.330;2024-01-30T15:32:57;4.53;;;1.40;;
29546;SDS011;40782;47.264;11.330;2024-01-30T15:35:24;2.38;;;1.38;;
29546;SDS011;40782;47.264;11.330;2024-01-30T15:37:52;4.85;;;2.10;;
29546;SDS011;40782;47.264;11.330;2024-01-30T15:40:19;3.85;;;2.40;;
29546;SDS011;40782;47.264;11.330;2024-01-30T15:42:46;3.97;;;3.50;;
29546;SDS011;40782;47.264;11.330;2024-01-30T15:45:15;5.38;;;4.15;;
29546;SDS011;40782;47.264;11.330;2024-01-30T15:47:42;6.15;;;4.70;;
29546;SDS011;40782;47.264;11.330;2024-01-30T15:50:10;8.48;;;5.70;;
29546;SDS011;40782;47.264;11.330;2024-01-30T15:52:38;6.25;;;3.67;;
29546;SDS011;40782;47.264;11.330;2024-01-30T15:55:05;8.77;;;4.38;;
29546;SDS011;40782;47.264;11.330;2024-01-30T15:57:32;6.45;;;3.80;;
29546;SDS011;40782;47.264;11.330;2024-01-30T16:00:00;7.55;;;3.40;;
29546;SDS011;40782;47.264;11.330;2024-01-30T16:02:30;6.38;;;2.78;;
29546;SDS011;40782;47.264;11.330;2024-01-30T16:04:57;5.32;;;2.60;;
29546;SDS011;40782;47.264;11.330;2024-01-30T16:07:25;5.00;;;3.50;;
29546;SDS011;40782;47.264;11.330;2024-01-30T16:09:52;3.60;;;2.88;;
29546;SDS011;40782;47.264;11.330;2024-01-30T16:12:19;5.63;;;3.13;;
29546;SDS011;40782;47.264;11.330;2024-01-30T16:14:46;6.78;;;3.08;;
29546;SDS011;40782;47.264;11.330;2024-01-30T16:17:13;5.93;;;2.75;;
29546;SDS011;40782;47.264;11.330;2024-01-30T16:19:42;8.50;;;2.70;;
29546;SDS011;40782;47.264;11.330;2024-01-30T16:22:09;5.38;;;2.53;;
29546;SDS011;40782;47.264;11.330;2024-01-30T16:24:36;5.95;;;3.88;;
29546;SDS011;40782;47.264;11.330;2024-01-30T16:27:04;12.23;;;7.97;;
29546;SDS011;40782;47.264;11.330;2024-01-30T16:29:31;15.27;;;6.60;;
29546;SDS011;40782;47.264;11.330;2024-01-30T16:31:58;5.85;;;3.38;;
29546;SDS011;40782;47.264;11.330;2024-01-30T16:34:25;5.57;;;3.33;;
29546;SDS011;40782;47.264;11.330;2024-01-30T16:36:54;8.43;;;3.67;;
29546;SDS011;40782;47.264;11.330;2024-01-30T16:39:21;7.70;;;4.55;;
29546;SDS011;40782;47.264;11.330;2024-01-30T16:41:48;9.88;;;5.38;;
29546;SDS011;40782;47.264;11.330;2024-01-30T16:44:17;9.60;;;6.13;;
29546;SDS011;40782;47.264;11.330;2024-01-30T16:46:45;10.57;;;6.10;;
29546;SDS011;40782;47.264;11.330;2024-01-30T16:49:12;15.52;;;6.55;;
29546;SDS011;40782;47.264;11.330;2024-01-30T16:51:39;12.60;;;6.38;;
29546;SDS011;40782;47.264;11.330;2024-01-30T16:54:07;15.27;;;6.32;;
29546;SDS011;40782;47.264;11.330;2024-01-30T16:56:35;14.02;;;6.32;;
29546;SDS011;40782;47.264;11.330;2024-01-30T16:59:02;11.23;;;6.25;;
29546;SDS011;40782;47.264;11.330;2024-01-30T17:01:29;15.68;;;7.30;;
29546;SDS011;40782;47.264;11.330;2024-01-30T17:03:56;16.15;;;6.68;;
29546;SDS011;40782;47.264;11.330;2024-01-30T17:06:24;13.98;;;6.35;;
29546;SDS011;40782;47.264;11.330;2024-01-30T17:08:54;11.77;;;6.97;;
29546;SDS011;40782;47.264;11.330;2024-01-30T17:11:23;19.77;;;8.15;;
29546;SDS011;40782;47.264;11.330;2024-01-30T17:13:50;17.02;;;7.57;;
29546;SDS011;40782;47.264;11.330;2024-01-30T17:16:17;12.95;;;5.95;;
29546;SDS011;40782;47.264;11.330;2024-01-30T17:18:44;12.02;;;6.30;;
29546;SDS011;40782;47.264;11.330;2024-01-30T17:21:15;11.98;;;5.45;;
29546;SDS011;40782;47.264;11.330;2024-01-30T17:23:43;11.63;;;5.55;;
29546;SDS011;40782;47.264;11.330;2024-01-30T17:26:10;14.32;;;6.88;;
29546;SDS011;40782;47.264;11.330;2024-01-30T17:28:39;17.88;;;8.15;;
29546;SDS011;40782;47.264;11.330;2024-01-30T17:31:07;14.18;;;7.75;;
29546;SDS011;40782;47.264;11.330;2024-01-30T17:33:34;15.98;;;6.38;;
29546;SDS011;40782;47.264;11.330;2024-01-30T17:36:03;8.73;;;6.32;;
29546;SDS011;40782;47.264;11.330;2024-01-30T17:38:30;11.25;;;6.55;;
29546;SDS011;40782;47.264;11.330;2024-01-30T17:40:57;18.00;;;7.57;;
29546;SDS011;40782;47.264;11.330;2024-01-30T17:43:25;13.27;;;7.43;;
29546;SDS011;40782;47.264;11.330;2024-01-30T17:45:53;9.15;;;6.45;;
29546;SDS011;40782;47.264;11.330;2024-01-30T17:48:20;12.20;;;6.53;;
29546;SDS011;40782;47.264;11.330;2024-01-30T17:50:48;15.50;;;7.30;;
29546;SDS011;40782;47.264;11.330;2024-01-30T17:53:15;9.10;;;5.78;;
29546;SDS011;40782;47.264;11.330;2024-01-30T17:55:42;12.15;;;6.93;;
29546;SDS011;40782;47.264;11.330;2024-01-30T17:58:09;12.93;;;7.03;;
29546;SDS011;40782;47.264;11.330;2024-01-30T18:00:40;11.63;;;6.30;;
29546;SDS011;40782;47.264;11.330;2024-01-30T18:03:08;10.05;;;6.22;;
29546;SDS011;40782;47.264;11.330;2024-01-30T18:05:35;13.40;;;7.50;;
29546;SDS011;40782;47.264;11.330;2024-01-30T18:08:03;11.02;;;7.68;;
29546;SDS011;40782;47.264;11.330;2024-01-30T18:10:31;12.00;;;7.18;;
29546;SDS011;40782;47.264;11.330;2024-01-30T18:13:00;18.00;;;9.38;;
29546;SDS011;40782;47.264;11.330;2024-01-30T18:15:29;19.63;;;10.63;;
29546;SDS011;40782;47.264;11.330;2024-01-30T18:17:56;18.30;;;10.48;;
29546;SDS011;40782;47.264;11.330;2024-01-30T18:20:25;18.88;;;10.93;;
29546;SDS011;40782;47.264;11.330;2024-01-30T18:22:52;17.35;;;9.88;;
29546;SDS011;40782;47.264;11.330;2024-01-30T18:25:19;18.77;;;10.00;;
29546;SDS011;40782;47.264;11.330;2024-01-30T18:27:46;19.63;;;9.88;;
29546;SDS011;40782;47.264;11.330;2024-01-30T18:30:15;16.38;;;9.60;;
29546;SDS011;40782;47.264;11.330;2024-01-30T18:32:42;18.10;;;10.07;;
29546;SDS011;40782;47.264;11.330;2024-01-30T18:35:11;18.63;;;9.77;;
29546;SDS011;40782;47.264;11.330;2024-01-30T18:37:39;56.08;;;26.42;;
29546;SDS011;40782;47.264;11.330;2024-01-30T18:40:07;47.70;;;24.45;;
29546;SDS011;40782;47.264;11.330;2024-01-30T18:42:36;72.10;;;36.80;;
29546;SDS011;40782;47.264;11.330;2024-01-30T18:45:04;57.03;;;31.00;;
29546;SDS011;40782;47.264;11.330;2024-01-30T18:47:31;51.13;;;26.42;;
29546;SDS011;40782;47.264;11.330;2024-01-30T18:49:59;33.97;;;18.85;;
29546;SDS011;40782;47.264;11.330;2024-01-30T18:52:26;32.50;;;17.25;;
29546;SDS011;40782;47.264;11.330;2024-01-30T18:54:54;25.75;;;15.70;;
29546;SDS011;40782;47.264;11.330;2024-01-30T18:57:24;27.13;;;15.07;;
29546;SDS011;40782;47.264;11.330;2024-01-30T18:59:53;24.15;;;14.63;;
29546;SDS011;40782;47.264;11.330;2024-01-30T19:02:20;23.75;;;13.13;;
29546;SDS011;40782;47.264;11.330;2024-01-30T19:04:48;22.65;;;12.35;;
29546;SDS011;40782;47.264;11.330;2024-01-30T19:07:17;17.08;;;10.25;;
29546;SDS011;40782;47.264;11.330;2024-01-30T19:09:46;20.75;;;10.23;;
29546;SDS011;40782;47.264;11.330;2024-01-30T19:12:15;17.27;;;9.73;;
29546;SDS011;40782;47.264;11.330;2024-01-30T19:14:42;16.38;;;9.35;;
29546;SDS011;40782;47.264;11.330;2024-01-30T19:17:09;16.00;;;9.02;;
29546;SDS011;40782;47.264;11.330;2024-01-30T19:19:36;15.60;;;8.60;;
29546;SDS011;40782;47.264;11.330;2024-01-30T19:22:05;15.07;;;8.98;;
29546;SDS011;40782;47.264;11.330;2024-01-30T19:24:33;16.52;;;8.45;;
29546;SDS011;40782;47.264;11.330;2024-01-30T19:27:01;16.40;;;8.60;;
29546;SDS011;40782;47.264;11.330;2024-01-30T19:29:29;12.77;;;8.80;;
29546;SDS011;40782;47.264;11.330;2024-01-30T19:31:56;15.88;;;10.18;;
29546;SDS011;40782;47.264;11.330;2024-01-30T19:34:24;15.48;;;9.98;;
29546;SDS011;40782;47.264;11.330;2024-01-30T19:36:51;25.13;;;13.25;;
29546;SDS011;40782;47.264;11.330;2024-01-30T19:39:18;33.95;;;19.13;;
29546;SDS011;40782;47.264;11.330;2024-01-30T19:41:46;33.45;;;19.02;;
29546;SDS011;40782;47.264;11.330;2024-01-30T19:44:14;25.83;;;15.93;;
29546;SDS011;40782;47.264;11.330;2024-01-30T19:46:42;22.38;;;12.70;;
29546;SDS011;40782;47.264;11.330;2024-01-30T19:49:10;24.00;;;13.50;;
29546;SDS011;40782;47.264;11.330;2024-01-30T19:51:38;22.63;;;12.50;;
29546;SDS011;40782;47.264;11.330;2024-01-30T19:54:05;25.42;;;14.98;;
29546;SDS011;40782;47.264;11.330;2024-01-30T19:56:35;34.38;;;18.23;;
29546;SDS011;40782;47.264;11.330;2024-01-30T19:59:03;25.38;;;15.63;;
29546;SDS011;40782;47.264;11.330;2024-01-30T20:01:31;23.15;;;13.52;;
29546;SDS011;40782;47.264;11.330;2024-01-30T20:04:00;18.83;;;11.05;;
29546;SDS011;40782;47.264;11.330;2024-01-30T20:06:28;16.27;;;9.40;;
29546;SDS011;40782;47.264;11.330;2024-01-30T20:08:55;17.67;;;9.73;;
29546;SDS011;40782;47.264;11.330;2024-01-30T20:11:22;14.63;;;9.13;;
29546;SDS011;40782;47.264;11.330;2024-01-30T20:13:50;16.23;;;9.32;;
29546;SDS011;40782;47.264;11.330;2024-01-30T20:16:17;16.10;;;9.25;;
29546;SDS011;40782;47.264;11.330;2024-01-30T20:18:44;13.80;;;8.75;;
29546;SDS011;40782;47.264;11.330;2024-01-30T20:21:13;14.27;;;8.77;;
29546;SDS011;40782;47.264;11.330;2024-01-30T20:23:40;15.27;;;9.95;;
29546;SDS011;40782;47.264;11.330;2024-01-30T20:26:07;17.58;;;10.25;;
29546;SDS011;40782;47.264;11.330;2024-01-30T20:28:35;16.63;;;9.93;;
29546;SDS011;40782;47.264;11.330;2024-01-30T20:31:03;18.38;;;10.98;;
29546;SDS011;40782;47.264;11.330;2024-01-30T20:33:31;16.98;;;9.85;;
29546;SDS011;40782;47.264;11.330;2024-01-30T20:35:59;10.05;;;7.35;;
29546;SDS011;40782;47.264;11.330;2024-01-30T20:38:28;9.77;;;6.00;;
29546;SDS011;40782;47.264;11.330;2024-01-30T20:40:55;8.98;;;6.32;;
29546;SDS011;40782;47.264;11.330;2024-01-30T20:43:23;13.45;;;6.97;;
29546;SDS011;40782;47.264;11.330;2024-01-30T20:45:50;9.48;;;6.50;;
29546;SDS011;40782;47.264;11.330;2024-01-30T20:48:17;16.10;;;7.82;;
29546;SDS011;40782;47.264;11.330;2024-01-30T20:50:45;11.68;;;7.22;;
29546;SDS011;40782;47.264;11.330;2024-01-30T20:53:12;16.13;;;7.53;;
29546;SDS011;40782;47.264;11.330;2024-01-30T20:55:40;10.95;;;7.25;;
29546;SDS011;40782;47.264;11.330;2024-01-30T20:58:08;11.60;;;7.32;;
29546;SDS011;40782;47.264;11.330;2024-01-30T21:00:35;13.68;;;7.57;;
29546;SDS011;40782;47.264;11.330;2024-01-30T21:03:02;12.60;;;7.25;;
29546;SDS011;40782;47.264;11.330;2024-01-30T21:05:29;11.60;;;6.82;;
29546;SDS011;40782;47.264;11.330;2024-01-30T21:07:58;10.35;;;6.78;;
29546;SDS011;40782;47.264;11.330;2024-01-30T21:10:25;11.88;;;7.35;;
29546;SDS011;40782;47.264;11.330;2024-01-30T21:12:54;15.48;;;7.32;;
29546;SDS011;40782;47.264;11.330;2024-01-30T21:15:21;12.35;;;6.25;;
29546;SDS011;40782;47.264;11.330;2024-01-30T21:17:48;11.07;;;6.88;;
29546;SDS011;40782;47.264;11.330;2024-01-30T21:20:16;11.48;;;6.50;;
29546;SDS011;40782;47.264;11.330;2024-01-30T21:22:44;14.35;;;8.07;;
29546;SDS011;40782;47.264;11.330;2024-01-30T21:25:11;12.95;;;7.93;;
29546;SDS011;40782;47.264;11.330;2024-01-30T21:27:38;14.57;;;7.25;;
29546;SDS011;40782;47.264;11.330;2024-01-30T21:30:08;15.82;;;7.35;;
29546;SDS011;40782;47.264;11.330;2024-01-30T21:32:36;22.08;;;10.23;;
29546;SDS011;40782;47.264;11.330;2024-01-30T21:35:04;55.25;;;19.10;;
29546;SDS011;40782;47.264;11.330;2024-01-30T21:37:31;66.85;;;22.85;;
29546;SDS011;40782;47.264;11.330;2024-01-30T21:39:59;121.05;;;41.65;;
29546;SDS011;40782;47.264;11.330;2024-01-30T21:42:26;24.60;;;10.63;;
29546;SDS011;40782;47.264;11.330;2024-01-30T21:44:53;15.57;;;6.93;;
29546;SDS011;40782;47.264;11.330;2024-01-30T21:47:22;34.90;;;31.17;;
29546;SDS011;40782;47.264;11.330;2024-01-30T21:49:50;43.10;;;25.77;;
29546;SDS011;40782;47.264;11.330;2024-01-30T21:52:17;16.15;;;9.93;;
29546;SDS011;40782;47.264;11.330;2024-01-30T21:54:45;12.52;;;6.93;;
29546;SDS011;40782;47.264;11.330;2024-01-30T21:57:12;15.15;;;7.13;;
29546;SDS011;40782;47.264;11.330;2024-01-30T21:59:39;12.90;;;6.93;;
29546;SDS011;40782;47.264;11.330;2024-01-30T22:02:07;14.63;;;6.57;;
29546;SDS011;40782;47.264;11.330;2024-01-30T22:04:35;11.63;;;6.80;;
29546;SDS011;40782;47.264;11.330;2024-01-30T22:07:03;12.32;;;7.65;;
29546;SDS011;40782;47.264;11.330;2024-01-30T22:09:30;20.27;;;10.80;;
29546;SDS011;40782;47.264;11.330;2024-01-30T22:11:57;27.38;;;10.45;;
29546;SDS011;40782;47.264;11.330;2024-01-30T22:14:24;17.73;;;10.63;;
29546;SDS011;40782;47.264;11.330;2024-01-30T22:16:51;19.77;;;10.30;;
29546;SDS011;40782;47.264;11.330;2024-01-30T22:19:19;17.02;;;10.18;;
29546;SDS011;40782;47.264;11.330;2024-01-30T22:21:47;16.42;;;10.40;;
29546;SDS011;40782;47.264;11.330;2024-01-30T22:24:14;19.08;;;10.60;;
29546;SDS011;40782;47.264;11.330;2024-01-30T22:26:42;19.88;;;11.02;;
29546;SDS011;40782;47.264;11.330;2024-01-30T22:29:09;16.83;;;10.48;;
29546;SDS011;40782;47.264;11.330;2024-01-30T22:31:36;18.98;;;10.60;;
29546;SDS011;40782;47.264;11.330;2024-01-30T22:34:04;18.80;;;10.45;;
29546;SDS011;40782;47.264;11.330;2024-01-30T22:36:31;22.63;;;9.98;;
29546;SDS011;40782;47.264;11.330;2024-01-30T22:39:03;17.65;;;9.32;;
29546;SDS011;40782;47.264;11.330;2024-01-30T22:41:30;18.90;;;9.98;;
29546;SDS011;40782;47.264;11.330;2024-01-30T22:43:57;17.98;;;10.07;;
29546;SDS011;40782;47.264;11.330;2024-01-30T22:46:25;15.70;;;9.57;;
29546;SDS011;40782;47.264;11.330;2024-01-30T22:48:52;17.55;;;9.38;;
29546;SDS011;40782;47.264;11.330;2024-01-30T22:51:19;15.30;;;9.35;;
29546;SDS011;40782;47.264;11.330;2024-01-30T22:53:46;17.13;;;9.05;;
29546;SDS011;40782;47.264;11.330;2024-01-30T22:56:17;16.20;;;9.27;;
29546;SDS011;40782;47.264;11.330;2024-01-30T22:58:44;15.35;;;9.15;;
29546;SDS011;40782;47.264;11.330;2024-01-30T23:01:12;17.45;;;10.05;;
29546;SDS011;40782;47.264;11.330;2024-01-30T23:03:39;18.38;;;9.90;;
29546;SDS011;40782;47.264;11.330;2024-01-30T23:06:08;22.52;;;10.52;;
29546;SDS011;40782;47.264;11.330;2024-01-30T23:08:35;16.60;;;10.43;;
29546;SDS011;40782;47.264;11.330;2024-01-30T23:11:03;25.17;;;13.70;;
29546;SDS011;40782;47.264;11.330;2024-01-30T23:13:31;19.02;;;11.60;;
29546;SDS011;40782;47.264;11.330;2024-01-30T23:15:58;16.27;;;10.32;;
29546;SDS011;40782;47.264;11.330;2024-01-30T23:18:26;16.15;;;9.80;;
29546;SDS011;40782;47.264;11.330;2024-01-30T23:20:53;22.95;;;12.77;;
29546;SDS011;40782;47.264;11.330;2024-01-30T23:23:20;25.88;;;12.98;;
29546;SDS011;40782;47.264;11.330;2024-01-30T23:25:47;21.40;;;11.82;;
29546;SDS011;40782;47.264;11.330;2024-01-30T23:28:14;27.30;;;12.43;;
29546;SDS011;40782;47.264;11.330;2024-01-30T23:30:43;19.42;;;11.77;;
29546;SDS011;40782;47.264;11.330;2024-01-30T23:33:11;18.67;;;10.48;;
29546;SDS011;40782;47.264;11.330;2024-01-30T23:35:38;17.77;;;10.30;;
29546;SDS011;40782;47.264;11.330;2024-01-30T23:38:06;14.45;;;9.40;;
29546;SDS011;40782;47.264;11.330;2024-01-30T23:40:33;14.73;;;9.57;;
29546;SDS011;40782;47.264;11.330;2024-01-30T23:43:00;14.65;;;9.52;;
29546;SDS011;40782;47.264;11.330;2024-01-30T23:45:28;19.40;;;10.60;;
29546;SDS011;40782;47.264;11.330;2024-01-30T23:47:56;21.20;;;10.63;;
29546;SDS011;40782;47.264;11.330;2024-01-30T23:50:23;20.63;;;10.68;;
29546;SDS011;40782;47.264;11.330;2024-01-30T23:52:50;16.30;;;9.82;;
29546;SDS011;40782;47.264;11.330;2024-01-30T23:55:17;16.98;;;10.27;;
29546;SDS011;40782;47.264;11.330;2024-01-30T23:57:45;16.67;;;10.32;;
